Time;durP1;ratioP1;P1;durP2;ratioP2;P2;SDS_P1;SDS_P2;PMS_P1;PMS_P2;Temp;Humidity;BMP_temperature;BMP_pressure;BME280_temperature;BME280_humidity;BME280_pressure;Samples;Min_cycle;Max_cycle;Signal;HPM_P1;HPM_P2
2023/04/10 00:00:08;;;;;;;5.07;1.85;;;;;;;;;;5015147;28;20021;-90
2023/04/10 00:02:36;;;;;;;5.03;1.60;;;;;;;;;;5012487;28;20045;-91
2023/04/10 00:05:02;;;;;;;2.60;1.80;;;;;;;;;;5011578;28;20447;-90
2023/04/10 00:07:28;;;;;;;2.40;1.75;;;;;;;;;;5020408;28;20022;-89
2023/04/10 00:09:54;;;;;;;2.85;1.77;;;;;;;;;;5010319;28;20083;-90
2023/04/10 00:12:21;;;;;;;4.05;1.90;;;;;;;;;;5006203;28;20041;-90
2023/04/10 00:14:47;;;;;;;3.38;1.77;;;;;;;;;;5011472;28;20021;-90
2023/04/10 00:17:13;;;;;;;2.28;1.65;;;;;;;;;;5015869;28;20064;-89
2023/04/10 00:19:39;;;;;;;2.90;1.50;;;;;;;;;;5010021;28;20124;-90
2023/04/10 00:22:06;;;;;;;2.72;1.77;;;;;;;;;;5011391;28;20034;-89
2023/04/10 00:24:32;;;;;;;2.50;1.90;;;;;;;;;;5018235;28;20060;-89
2023/04/10 00:26:58;;;;;;;3.38;1.83;;;;;;;;;;5018986;28;20100;-89
2023/04/10 00:29:24;;;;;;;3.20;1.83;;;;;;;;;;5020397;28;20121;-89
2023/04/10 00:31:50;;;;;;;2.63;1.90;;;;;;;;;;5013087;28;20499;-90
2023/04/10 00:34:17;;;;;;;3.08;1.85;;;;;;;;;;5018505;28;20056;-90
2023/04/10 00:36:45;;;;;;;2.95;1.70;;;;;;;;;;5010322;28;20030;-89
2023/04/10 00:39:11;;;;;;;3.78;1.65;;;;;;;;;;5009994;28;20541;-91
2023/04/10 00:41:37;;;;;;;2.72;1.92;;;;;;;;;;5019986;28;20775;-90
2023/04/10 00:44:04;;;;;;;2.20;1.80;;;;;;;;;;5012132;28;20021;-90
2023/04/10 00:46:31;;;;;;;3.55;1.70;;;;;;;;;;5020425;28;20059;-90
2023/04/10 00:48:57;;;;;;;4.80;2.15;;;;;;;;;;5021495;28;20495;-90
2023/04/10 00:51:23;;;;;;;3.95;2.15;;;;;;;;;;5009170;28;20081;-90
2023/04/10 00:53:50;;;;;;;6.97;2.47;;;;;;;;;;5016607;28;20021;-90
2023/04/10 00:56:18;;;;;;;3.90;2.08;;;;;;;;;;5008644;28;20029;-90
2023/04/10 00:58:44;;;;;;;4.38;2.58;;;;;;;;;;5012474;28;20068;-90
2023/04/10 01:01:10;;;;;;;4.82;2.30;;;;;;;;;;5011125;28;20093;-90
2023/04/10 01:03:37;;;;;;;3.72;2.97;;;;;;;;;;5021524;28;20037;-89
2023/04/10 01:06:04;;;;;;;3.88;2.40;;;;;;;;;;5014343;28;20041;-90
2023/04/10 01:08:36;;;;;;;4.55;2.42;;;;;;;;;;5013761;28;20099;-90
2023/04/10 01:11:02;;;;;;;4.20;2.40;;;;;;;;;;5014415;28;20116;-91
2023/04/10 01:13:34;;;;;;;3.95;2.22;;;;;;;;;;5011714;28;20519;-90
2023/04/10 01:16:18;;;;;;;3.15;2.25;;;;;;;;;;5010935;28;20399;-89
2023/04/10 01:18:48;;;;;;;2.92;2.60;;;;;;;;;;5020397;28;20191;-90
2023/04/10 01:21:16;;;;;;;4.10;2.30;;;;;;;;;;5014689;28;20041;-91
2023/04/10 01:23:48;;;;;;;5.28;2.55;;;;;;;;;;5016842;28;20030;-90
2023/04/10 01:26:18;;;;;;;3.13;2.70;;;;;;;;;;5007926;28;20041;-91
2023/04/10 01:28:52;;;;;;;4.13;3.55;;;;;;;;;;5019269;28;20030;-90
2023/04/10 01:31:20;;;;;;;3.85;2.85;;;;;;;;;;5048084;28;20032;-90
2023/04/10 01:33:52;;;;;;;3.63;2.95;;;;;;;;;;5002737;28;20287;-90
2023/04/10 01:36:21;;;;;;;3.65;2.92;;;;;;;;;;5016529;28;20656;-90
2023/04/10 01:38:49;;;;;;;6.20;3.65;;;;;;;;;;5008420;28;20029;-91
2023/04/10 01:41:16;;;;;;;4.65;3.03;;;;;;;;;;5006662;28;20033;-90
2023/04/10 01:43:43;;;;;;;5.90;3.40;;;;;;;;;;5008601;28;20034;-90
2023/04/10 01:46:12;;;;;;;3.30;2.75;;;;;;;;;;5010721;28;20530;-90
2023/04/10 01:48:38;;;;;;;3.58;3.17;;;;;;;;;;5011252;28;20055;-90
2023/04/10 01:51:06;;;;;;;4.65;3.00;;;;;;;;;;5021439;28;20039;-90
2023/04/10 01:53:32;;;;;;;4.15;3.10;;;;;;;;;;5010441;28;20030;-91
2023/04/10 01:55:59;;;;;;;5.65;3.40;;;;;;;;;;5006012;28;20022;-90
2023/04/10 01:58:25;;;;;;;5.47;3.03;;;;;;;;;;5010238;28;20054;-91
2023/04/10 02:00:51;;;;;;;4.53;3.50;;;;;;;;;;5000275;28;20029;-90
2023/04/10 02:03:17;;;;;;;5.07;3.20;;;;;;;;;;5016246;28;20595;-90
2023/04/10 02:06:02;;;;;;;4.97;3.28;;;;;;;;;;5010100;28;20037;-90
2023/04/10 02:08:47;;;;;;;5.05;3.13;;;;;;;;;;5011742;28;20136;-90
2023/04/10 02:11:17;;;;;;;4.85;3.38;;;;;;;;;;5007586;28;20435;-89
2023/04/10 02:13:43;;;;;;;4.45;3.10;;;;;;;;;;5010394;28;20030;-90
2023/04/10 02:16:09;;;;;;;8.88;3.53;;;;;;;;;;5014534;28;20034;-89
2023/04/10 02:18:36;;;;;;;3.70;3.33;;;;;;;;;;5017695;28;20373;-89
2023/04/10 02:21:03;;;;;;;5.28;3.80;;;;;;;;;;5016004;28;20114;-90
2023/04/10 02:23:29;;;;;;;5.95;3.50;;;;;;;;;;5012303;28;20474;-90
2023/04/10 02:25:56;;;;;;;4.63;3.45;;;;;;;;;;5017080;28;20030;-89
2023/04/10 02:28:22;;;;;;;4.50;3.55;;;;;;;;;;5011214;28;20022;-89
2023/04/10 02:30:48;;;;;;;5.63;3.63;;;;;;;;;;5013838;28;20025;-91
2023/04/10 02:33:14;;;;;;;3.88;3.22;;;;;;;;;;5023595;28;20112;-90
2023/04/10 02:35:42;;;;;;;5.13;4.07;;;;;;;;;;5024466;28;20034;-90
2023/04/10 02:38:08;;;;;;;4.25;3.50;;;;;;;;;;5023765;28;20025;-91
2023/04/10 02:40:34;;;;;;;5.00;3.25;;;;;;;;;;5021114;28;20044;-88
2023/04/10 02:43:01;;;;;;;7.13;3.70;;;;;;;;;;5011512;28;20112;-89
2023/04/10 02:45:27;;;;;;;4.53;3.20;;;;;;;;;;5019608;28;20498;-91
2023/04/10 02:47:53;;;;;;;5.15;3.85;;;;;;;;;;5019039;28;20049;-89
2023/04/10 02:50:19;;;;;;;6.75;3.60;;;;;;;;;;5009272;28;20047;-90
2023/04/10 02:52:46;;;;;;;5.53;3.42;;;;;;;;;;5010679;28;20026;-90
2023/04/10 02:55:12;;;;;;;4.25;3.20;;;;;;;;;;5015092;28;20041;-89
2023/04/10 02:57:38;;;;;;;5.28;3.42;;;;;;;;;;5013080;28;20113;-89
2023/04/10 03:00:04;;;;;;;4.82;3.10;;;;;;;;;;5011468;28;20400;-89
2023/04/10 03:02:31;;;;;;;5.63;3.30;;;;;;;;;;5012608;28;20123;-88
2023/04/10 03:04:57;;;;;;;7.20;3.60;;;;;;;;;;5023869;28;20037;-91
2023/04/10 03:07:23;;;;;;;5.10;3.28;;;;;;;;;;5015390;28;20030;-90
2023/04/10 03:09:50;;;;;;;4.00;3.55;;;;;;;;;;5014307;28;20132;-90
2023/04/10 03:12:17;;;;;;;4.82;3.22;;;;;;;;;;5016445;28;20030;-89
2023/04/10 03:14:43;;;;;;;5.03;3.53;;;;;;;;;;5011434;28;20029;-90
2023/04/10 03:17:11;;;;;;;5.97;3.63;;;;;;;;;;5021462;28;20488;-90
2023/04/10 03:19:37;;;;;;;6.72;4.03;;;;;;;;;;5023417;28;20030;-90
2023/04/10 03:22:03;;;;;;;6.03;3.40;;;;;;;;;;5012969;28;20018;-90
2023/04/10 03:24:29;;;;;;;5.70;3.47;;;;;;;;;;5025188;28;20060;-89
2023/04/10 03:26:55;;;;;;;4.32;3.15;;;;;;;;;;5012068;28;20028;-90
2023/04/10 03:29:22;;;;;;;5.95;3.60;;;;;;;;;;5014581;28;20026;-90
2023/04/10 03:31:48;;;;;;;5.93;3.67;;;;;;;;;;5010498;28;20018;-90
2023/04/10 03:34:15;;;;;;;6.15;3.50;;;;;;;;;;5011194;28;20024;-90
2023/04/10 03:36:41;;;;;;;4.95;3.20;;;;;;;;;;5012206;28;20025;-89
2023/04/10 03:39:08;;;;;;;4.82;3.30;;;;;;;;;;5023840;28;20017;-89
2023/04/10 03:41:34;;;;;;;4.28;3.50;;;;;;;;;;5020099;28;20037;-89
2023/04/10 03:44:02;;;;;;;5.35;3.53;;;;;;;;;;5008956;28;20084;-89
2023/04/10 03:46:28;;;;;;;5.32;3.70;;;;;;;;;;5009182;28;20097;-89
2023/04/10 03:48:54;;;;;;;4.90;3.38;;;;;;;;;;5025096;28;20115;-90
2023/04/10 03:51:22;;;;;;;5.18;4.03;;;;;;;;;;5011828;28;20022;-88
2023/04/10 03:53:48;;;;;;;4.22;3.50;;;;;;;;;;5019210;28;20029;-89
2023/04/10 03:56:14;;;;;;;8.77;3.72;;;;;;;;;;5011158;28;20669;-89
2023/04/10 03:58:40;;;;;;;6.47;3.42;;;;;;;;;;5013209;28;20463;-89
2023/04/10 04:01:07;;;;;;;5.38;3.65;;;;;;;;;;5013205;28;20336;-89
2023/04/10 04:03:33;;;;;;;5.38;3.92;;;;;;;;;;5014791;28;20050;-89
2023/04/10 04:05:59;;;;;;;4.15;3.50;;;;;;;;;;5014570;28;20074;-87
2023/04/10 04:08:25;;;;;;;4.93;3.10;;;;;;;;;;5019311;28;20300;-88
2023/04/10 04:10:51;;;;;;;7.22;3.40;;;;;;;;;;5015476;28;20555;-88
2023/04/10 04:13:18;;;;;;;4.40;3.50;;;;;;;;;;5015969;28;20587;-89
2023/04/10 04:15:44;;;;;;;5.97;4.28;;;;;;;;;;5018419;28;20018;-87
2023/04/10 04:18:10;;;;;;;4.13;3.45;;;;;;;;;;5017132;28;20072;-88
2023/04/10 04:20:36;;;;;;;6.90;3.63;;;;;;;;;;5017100;28;20018;-89
2023/04/10 04:23:02;;;;;;;6.95;3.70;;;;;;;;;;5014642;28;20112;-89
2023/04/10 04:25:29;;;;;;;5.10;3.75;;;;;;;;;;5014906;28;20152;-89
2023/04/10 04:27:55;;;;;;;9.15;3.72;;;;;;;;;;5024390;28;20025;-90
2023/04/10 04:30:21;;;;;;;5.20;3.85;;;;;;;;;;5020846;28;20487;-89
2023/04/10 04:32:47;;;;;;;6.47;3.80;;;;;;;;;;5025478;28;20053;-87
2023/04/10 04:35:14;;;;;;;4.55;3.08;;;;;;;;;;5012728;28;20030;-88
2023/04/10 04:37:40;;;;;;;5.82;3.70;;;;;;;;;;5013137;28;20030;-88
2023/04/10 04:40:07;;;;;;;5.20;3.85;;;;;;;;;;5027643;28;20387;-90
2023/04/10 04:42:36;;;;;;;7.85;4.05;;;;;;;;;;5010232;28;20032;-89
2023/04/10 04:45:02;;;;;;;4.15;3.58;;;;;;;;;;5010158;28;20045;-89
2023/04/10 04:47:28;;;;;;;5.22;3.67;;;;;;;;;;5014015;28;20054;-90
2023/04/10 04:49:55;;;;;;;6.70;3.67;;;;;;;;;;5013320;28;20076;-89
2023/04/10 04:52:22;;;;;;;6.18;3.83;;;;;;;;;;5010780;28;20026;-89
2023/04/10 04:54:48;;;;;;;7.18;3.80;;;;;;;;;;5014327;28;20063;-89
2023/04/10 04:57:14;;;;;;;6.38;4.47;;;;;;;;;;5009636;28;20030;-88
2023/04/10 04:59:41;;;;;;;4.57;3.88;;;;;;;;;;5007936;28;20021;-89
2023/04/10 05:02:07;;;;;;;5.45;3.90;;;;;;;;;;5016199;28;20144;-89
2023/04/10 05:04:33;;;;;;;5.78;4.10;;;;;;;;;;5008328;28;20376;-88
2023/04/10 05:07:00;;;;;;;4.07;3.33;;;;;;;;;;5016193;28;20030;-89
2023/04/10 05:09:26;;;;;;;7.00;3.28;;;;;;;;;;5010815;28;20124;-89
2023/04/10 05:11:53;;;;;;;8.10;4.00;;;;;;;;;;5006582;28;20036;-89
2023/04/10 05:14:21;;;;;;;5.00;3.63;;;;;;;;;;5009652;28;20029;-88
2023/04/10 05:16:47;;;;;;;6.93;3.88;;;;;;;;;;5018966;28;20029;-90
2023/04/10 05:19:13;;;;;;;8.90;3.95;;;;;;;;;;5009115;28;20025;-89
2023/04/10 05:21:40;;;;;;;5.03;3.45;;;;;;;;;;5011156;28;20021;-89
2023/04/10 05:24:06;;;;;;;5.55;3.40;;;;;;;;;;5010269;28;20112;-89
2023/04/10 05:26:32;;;;;;;7.60;4.07;;;;;;;;;;5007205;28;20033;-89
2023/04/10 05:28:58;;;;;;;13.70;3.90;;;;;;;;;;5019284;28;20470;-89
2023/04/10 05:31:25;;;;;;;6.28;4.10;;;;;;;;;;5013028;28;20404;-88
2023/04/10 05:33:51;;;;;;;4.93;3.70;;;;;;;;;;5013697;28;20085;-89
2023/04/10 05:36:17;;;;;;;8.25;4.18;;;;;;;;;;5017005;28;20565;-89
2023/04/10 05:38:43;;;;;;;5.68;3.65;;;;;;;;;;5011586;28;20359;-90
2023/04/10 05:41:09;;;;;;;6.13;4.25;;;;;;;;;;5018929;28;20026;-89
2023/04/10 05:43:36;;;;;;;8.10;4.10;;;;;;;;;;5013269;28;20021;-89
2023/04/10 05:46:02;;;;;;;5.90;3.95;;;;;;;;;;5012132;28;20512;-88
2023/04/10 05:48:28;;;;;;;5.20;3.80;;;;;;;;;;5018955;28;20021;-89
2023/04/10 05:50:54;;;;;;;6.70;4.13;;;;;;;;;;5023044;28;20061;-88
2023/04/10 05:53:24;;;;;;;8.80;4.00;;;;;;;;;;5004921;28;20049;-87
2023/04/10 05:55:58;;;;;;;6.22;4.22;;;;;;;;;;5005006;28;20392;-88
2023/04/10 05:58:28;;;;;;;9.05;3.92;;;;;;;;;;5041778;28;20032;-88
2023/04/10 06:00:55;;;;;;;5.63;3.75;;;;;;;;;;5015763;28;20017;-90
2023/04/10 06:03:21;;;;;;;8.85;3.60;;;;;;;;;;5016899;28;20543;-87
2023/04/10 06:05:48;;;;;;;9.32;4.10;;;;;;;;;;5010647;28;20145;-89
2023/04/10 06:08:14;;;;;;;4.25;3.40;;;;;;;;;;5014497;28;20116;-89
2023/04/10 06:10:40;;;;;;;8.65;3.90;;;;;;;;;;5004822;28;20033;-88
2023/04/10 06:13:07;;;;;;;7.18;3.72;;;;;;;;;;5012424;28;20040;-89
2023/04/10 06:15:33;;;;;;;6.88;3.85;;;;;;;;;;5008035;28;20112;-88
2023/04/10 06:17:59;;;;;;;7.85;3.58;;;;;;;;;;5010697;28;20029;-88
2023/04/10 06:20:37;;;;;;;7.65;4.00;;;;;;;;;;5012891;28;20030;-89
2023/04/10 06:23:04;;;;;;;8.63;3.63;;;;;;;;;;5033617;28;20113;-88
2023/04/10 06:25:30;;;;;;;7.80;4.10;;;;;;;;;;5008847;28;20088;-89
2023/04/10 06:27:57;;;;;;;5.80;3.38;;;;;;;;;;5009471;28;20032;-89
2023/04/10 06:30:43;;;;;;;8.18;3.70;;;;;;;;;;5007849;28;20059;-88
2023/04/10 06:33:09;;;;;;;9.93;3.95;;;;;;;;;;5016916;28;20055;-88
2023/04/10 06:35:36;;;;;;;5.63;3.55;;;;;;;;;;5017761;28;20033;-89
2023/04/10 06:38:05;;;;;;;8.23;3.67;;;;;;;;;;5011424;28;20026;-88
2023/04/10 06:40:33;;;;;;;6.15;3.83;;;;;;;;;;5031325;28;20030;-89
2023/04/10 06:42:59;;;;;;;7.30;3.67;;;;;;;;;;5006561;28;20025;-88
2023/04/10 06:45:25;;;;;;;6.25;3.92;;;;;;;;;;5027584;28;20053;-87
2023/04/10 06:47:52;;;;;;;5.07;3.28;;;;;;;;;;5021257;28;20031;-89
2023/04/10 06:53:22;;;;;;;5.65;3.65;;;;;;;;;;5003222;28;20242;-90
2023/04/10 06:55:48;;;;;;;9.30;3.78;;;;;;;;;;5011143;28;20061;-90
2023/04/10 06:58:15;;;;;;;4.53;3.50;;;;;;;;;;5018492;28;20096;-92
2023/04/10 07:04:04;;;;;;;9.60;4.68;;;;;;;;;;4850587;28;21992;-87
2023/04/10 07:06:30;;;;;;;6.10;3.95;;;;;;;;;;4985557;28;20038;-91
2023/04/10 07:08:56;;;;;;;6.25;3.85;;;;;;;;;;4981137;28;20345;-89
2023/04/10 07:11:22;;;;;;;9.43;3.75;;;;;;;;;;4983045;28;20346;-88
2023/04/10 07:13:52;;;;;;;10.75;3.60;;;;;;;;;;4983965;28;20136;-89
2023/04/10 07:16:18;;;;;;;8.25;3.50;;;;;;;;;;4985155;28;20030;-90
2023/04/10 07:18:44;;;;;;;8.25;3.83;;;;;;;;;;4982409;28;20686;-90
2023/04/10 07:21:12;;;;;;;6.70;3.60;;;;;;;;;;5003401;28;20026;-90
2023/04/10 07:23:38;;;;;;;3.92;3.33;;;;;;;;;;4988583;28;20026;-91
2023/04/10 07:26:04;;;;;;;4.68;3.45;;;;;;;;;;4989470;28;20053;-90
2023/04/10 07:28:32;;;;;;;5.05;3.70;;;;;;;;;;4994529;28;20030;-89
2023/04/10 07:30:58;;;;;;;11.93;3.90;;;;;;;;;;4988274;28;20605;-91
2023/04/10 07:33:24;;;;;;;4.25;3.25;;;;;;;;;;4987921;28;20049;-90
2023/04/10 07:35:51;;;;;;;7.13;3.47;;;;;;;;;;4986352;28;20559;-91
2023/04/10 07:38:17;;;;;;;6.88;3.60;;;;;;;;;;4986752;28;20036;-91
2023/04/10 07:40:44;;;;;;;5.53;3.42;;;;;;;;;;4989232;28;20026;-90
2023/04/10 07:43:10;;;;;;;6.22;3.33;;;;;;;;;;5002381;28;20022;-89
2023/04/10 07:45:36;;;;;;;4.00;3.28;;;;;;;;;;4987277;28;20129;-88
2023/04/10 07:48:03;;;;;;;6.00;3.50;;;;;;;;;;4987753;28;20022;-89
2023/04/10 07:50:29;;;;;;;6.70;3.88;;;;;;;;;;4986216;28;20419;-89
2023/04/10 07:53:06;;;;;;;8.63;3.88;;;;;;;;;;4985119;28;20101;-89
2023/04/10 07:55:42;;;;;;;5.53;3.92;;;;;;;;;;4985343;28;20424;-90
2023/04/10 07:58:09;;;;;;;6.80;4.32;;;;;;;;;;4988378;28;20083;-89
2023/04/10 08:00:35;;;;;;;6.13;3.67;;;;;;;;;;4986338;28;20041;-89
2023/04/10 08:03:02;;;;;;;12.13;4.53;;;;;;;;;;4982494;28;20033;-89
2023/04/10 08:05:28;;;;;;;7.78;3.72;;;;;;;;;;4998271;28;20053;-90
2023/04/10 08:07:54;;;;;;;7.35;3.97;;;;;;;;;;5016356;28;20021;-89
2023/04/10 08:10:20;;;;;;;5.40;3.53;;;;;;;;;;5006685;28;20038;-89
2023/04/10 08:12:50;;;;;;;6.95;3.50;;;;;;;;;;5016366;28;20411;-91
2023/04/10 08:15:17;;;;;;;6.95;3.90;;;;;;;;;;5010757;28;20038;-89
2023/04/10 08:17:46;;;;;;;11.18;4.50;;;;;;;;;;5019290;28;20619;-91
2023/04/10 08:20:13;;;;;;;8.50;4.45;;;;;;;;;;5009348;28;20423;-92
2023/04/10 08:22:39;;;;;;;7.32;3.67;;;;;;;;;;5038495;28;20077;-88
2023/04/10 08:25:05;;;;;;;6.50;3.58;;;;;;;;;;5014785;28;20185;-93
2023/04/10 08:27:35;;;;;;;9.48;4.40;;;;;;;;;;5022175;28;20705;-88
2023/04/10 08:30:01;;;;;;;6.45;3.88;;;;;;;;;;5014075;28;20503;-89
2023/04/10 08:32:28;;;;;;;6.65;4.72;;;;;;;;;;5008800;28;20060;-91
2023/04/10 08:34:54;;;;;;;6.70;4.05;;;;;;;;;;5018625;28;20084;-89
2023/04/10 08:37:20;;;;;;;8.10;4.10;;;;;;;;;;5012133;28;20029;-90
2023/04/10 08:39:46;;;;;;;9.48;3.72;;;;;;;;;;5011209;28;20545;-88
2023/04/10 08:42:13;;;;;;;8.05;3.40;;;;;;;;;;5015067;28;20116;-90
2023/04/10 08:44:40;;;;;;;9.27;3.95;;;;;;;;;;5013829;28;20025;-89
2023/04/10 08:47:08;;;;;;;5.45;3.45;;;;;;;;;;5019031;28;20037;-92
2023/04/10 08:49:39;;;;;;;6.70;4.10;;;;;;;;;;5006070;28;20030;-89
2023/04/10 08:52:10;;;;;;;6.30;4.25;;;;;;;;;;5015250;28;20029;-88
2023/04/10 08:54:38;;;;;;;6.47;3.30;;;;;;;;;;5015463;28;20038;-90
2023/04/10 08:57:06;;;;;;;8.10;3.50;;;;;;;;;;5015731;28;20088;-90
2023/04/10 08:59:35;;;;;;;8.68;3.85;;;;;;;;;;5018180;28;20030;-89
2023/04/10 09:02:01;;;;;;;5.47;3.47;;;;;;;;;;5023935;28;20038;-91
2023/04/10 09:04:27;;;;;;;7.45;3.42;;;;;;;;;;5021730;28;20061;-90
2023/04/10 09:06:53;;;;;;;9.52;3.60;;;;;;;;;;4997493;28;20511;-89
2023/04/10 09:09:20;;;;;;;6.30;3.22;;;;;;;;;;5008909;28;20463;-88
2023/04/10 09:11:49;;;;;;;8.63;3.72;;;;;;;;;;4994849;28;20029;-93
2023/04/10 09:14:22;;;;;;;6.97;3.72;;;;;;;;;;5001376;28;20095;-89
2023/04/10 09:16:53;;;;;;;6.15;2.72;;;;;;;;;;5004536;28;20065;-89
2023/04/10 09:19:38;;;;;;;9.15;3.97;;;;;;;;;;5021030;28;20277;-93
2023/04/10 09:22:04;;;;;;;8.30;4.05;;;;;;;;;;5005695;28;20113;-92
2023/04/10 09:24:30;;;;;;;7.28;3.80;;;;;;;;;;4992590;28;20029;-89
2023/04/10 09:26:57;;;;;;;7.35;4.50;;;;;;;;;;4995101;28;20054;-93
2023/04/10 09:29:24;;;;;;;7.03;3.47;;;;;;;;;;4999014;28;20027;-91
2023/04/10 09:31:50;;;;;;;7.72;3.75;;;;;;;;;;5014196;28;20059;-92
2023/04/10 09:34:16;;;;;;;9.20;3.90;;;;;;;;;;4997432;28;20068;-93
2023/04/10 09:36:43;;;;;;;7.72;3.65;;;;;;;;;;4997863;28;20030;-92
2023/04/10 09:39:11;;;;;;;7.75;3.58;;;;;;;;;;4995758;28;20026;-90
2023/04/10 09:41:51;;;;;;;7.63;4.20;;;;;;;;;;5002799;28;20604;-93
2023/04/10 09:44:18;;;;;;;9.25;4.32;;;;;;;;;;4993979;28;20029;-90
2023/04/10 09:46:45;;;;;;;8.88;3.80;;;;;;;;;;5004500;28;20032;-91
2023/04/10 09:49:12;;;;;;;7.53;4.20;;;;;;;;;;4987137;28;20025;-89
2023/04/10 09:51:38;;;;;;;10.80;3.63;;;;;;;;;;4993744;28;20021;-90
2023/04/10 09:54:05;;;;;;;7.03;3.47;;;;;;;;;;4990638;28;20133;-91
2023/04/10 09:56:33;;;;;;;5.28;3.70;;;;;;;;;;4999352;28;20164;-92
2023/04/10 09:59:00;;;;;;;9.02;4.45;;;;;;;;;;5011141;28;20095;-93
2023/04/10 10:01:33;;;;;;;12.80;4.70;;;;;;;;;;4998648;28;20777;-89
2023/04/10 10:04:03;;;;;;;9.15;4.90;;;;;;;;;;4994900;28;20042;-92
2023/04/10 10:06:33;;;;;;;7.20;3.55;;;;;;;;;;4988141;28;20139;-94
2023/04/10 10:09:04;;;;;;;7.97;3.70;;;;;;;;;;5009724;28;20022;-89
2023/04/10 10:11:33;;;;;;;7.97;4.75;;;;;;;;;;5003790;28;20036;-90
2023/04/10 10:14:06;;;;;;;13.27;8.30;;;;;;;;;;5017037;28;20053;-91
2023/04/10 10:16:43;;;;;;;7.88;4.93;;;;;;;;;;5001206;28;20048;-92
2023/04/10 10:19:10;;;;;;;12.25;6.72;;;;;;;;;;4993858;28;20030;-89
2023/04/10 10:21:41;;;;;;;10.20;5.15;;;;;;;;;;5008481;28;20033;-91
2023/04/10 10:24:08;;;;;;;9.55;4.78;;;;;;;;;;5010479;28;20121;-91
2023/04/10 10:26:38;;;;;;;9.15;4.13;;;;;;;;;;5007275;28;20552;-91
2023/04/10 10:29:05;;;;;;;7.15;4.03;;;;;;;;;;4990318;28;20032;-89
2023/04/10 10:31:36;;;;;;;9.75;3.95;;;;;;;;;;5003101;28;20531;-91
2023/04/10 10:34:13;;;;;;;9.77;4.53;;;;;;;;;;4991332;28;20187;-89
2023/04/10 10:36:40;;;;;;;6.47;4.30;;;;;;;;;;4989121;28;20308;-92
2023/04/10 10:39:25;;;;;;;10.00;4.97;;;;;;;;;;5009844;28;20044;-91
2023/04/10 10:41:58;;;;;;;17.58;11.73;;;;;;;;;;4996802;28;20036;-92
2023/04/10 10:44:34;;;;;;;8.85;5.00;;;;;;;;;;4993796;28;20030;-89
2023/04/10 10:47:20;;;;;;;14.75;7.18;;;;;;;;;;4999018;28;20031;-91
2023/04/10 10:50:34;;;;;;;19.13;7.38;;;;;;;;;;4996480;28;20542;-89
2023/04/10 10:53:00;;;;;;;9.85;5.50;;;;;;;;;;4964213;28;20044;-90
2023/04/10 10:55:27;;;;;;;16.50;6.60;;;;;;;;;;4997500;28;20543;-89
2023/04/10 10:57:58;;;;;;;14.25;6.20;;;;;;;;;;4991800;28;20034;-89
2023/04/10 11:00:28;;;;;;;12.90;6.60;;;;;;;;;;5003455;28;20476;-88
2023/04/10 11:03:10;;;;;;;18.45;5.07;;;;;;;;;;5001736;28;20644;-90
2023/04/10 11:05:57;;;;;;;9.65;5.05;;;;;;;;;;5011895;28;20050;-89
2023/04/10 11:08:32;;;;;;;9.82;5.32;;;;;;;;;;5012793;28;20089;-90
2023/04/10 11:11:05;;;;;;;10.43;5.32;;;;;;;;;;5034635;28;20481;-88
2023/04/10 11:13:42;;;;;;;8.63;5.90;;;;;;;;;;5044633;28;20597;-91
2023/04/10 11:16:10;;;;;;;10.32;5.68;;;;;;;;;;5014781;28;20029;-91
2023/04/10 11:18:45;;;;;;;13.63;5.88;;;;;;;;;;5016430;28;20029;-89
2023/04/10 11:21:16;;;;;;;12.95;6.35;;;;;;;;;;5021316;28;20040;-89
2023/04/10 11:23:52;;;;;;;9.77;5.90;;;;;;;;;;5011371;28;20022;-89
2023/04/10 11:29:05;;;;;;;20.83;9.60;;;;;;;;;;5014600;28;20025;-89
2023/04/10 11:31:32;;;;;;;19.67;11.68;;;;;;;;;;5011897;28;20030;-88
2023/04/10 11:34:09;;;;;;;15.80;10.20;;;;;;;;;;5014131;28;20207;-88
2023/04/10 11:36:38;;;;;;;15.15;8.02;;;;;;;;;;5027945;28;20313;-91
2023/04/10 11:39:18;;;;;;;17.65;9.90;;;;;;;;;;5021619;28;20161;-90
2023/04/10 11:42:03;;;;;;;33.83;22.00;;;;;;;;;;5014657;28;20570;-92
2023/04/10 11:44:41;;;;;;;;;;;;;;;;;;;;;
2023/04/10 11:47:12;;;;;;;11.77;6.47;;;;;;;;;;5020277;28;20056;-89
2023/04/10 11:49:39;;;;;;;14.77;9.23;;;;;;;;;;5016461;28;20068;-90
2023/04/10 11:52:08;;;;;;;12.10;7.05;;;;;;;;;;5019853;28;20096;-91
2023/04/10 11:54:36;;;;;;;12.73;7.55;;;;;;;;;;5015190;28;20026;-90
2023/04/10 11:57:10;;;;;;;16.48;9.18;;;;;;;;;;5019228;28;20150;-90
2023/04/10 11:59:37;;;;;;;12.70;6.28;;;;;;;;;;5037964;28;20087;-87
2023/04/10 12:02:08;;;;;;;12.57;7.70;;;;;;;;;;5014061;28;20033;-91
2023/04/10 12:04:34;;;;;;;13.68;6.20;;;;;;;;;;5014300;28;20123;-92
2023/04/10 12:07:01;;;;;;;16.70;8.27;;;;;;;;;;5024028;28;20045;-90
2023/04/10 12:09:27;;;;;;;25.65;16.70;;;;;;;;;;5010828;28;20032;-90
2023/04/10 12:12:00;;;;;;;12.35;7.40;;;;;;;;;;5013259;28;20029;-89
2023/04/10 12:14:31;;;;;;;10.80;5.72;;;;;;;;;;5011688;28;20458;-89
2023/04/10 12:16:58;;;;;;;12.03;5.70;;;;;;;;;;5013510;28;20033;-89
2023/04/10 12:19:24;;;;;;;12.93;5.22;;;;;;;;;;5017970;28;20282;-92
2023/04/10 12:21:51;;;;;;;9.35;5.78;;;;;;;;;;5023050;28;20392;-90
2023/04/10 12:24:36;;;;;;;10.18;5.20;;;;;;;;;;5014166;28;20101;-89
2023/04/10 12:27:02;;;;;;;14.30;6.20;;;;;;;;;;5015097;28;20128;-93
2023/04/10 12:29:29;;;;;;;11.93;6.90;;;;;;;;;;5020464;28;20025;-91
2023/04/10 12:31:56;;;;;;;14.35;6.20;;;;;;;;;;5014729;28;20037;-89
2023/04/10 12:34:22;;;;;;;11.13;7.05;;;;;;;;;;5020536;28;20068;-90
2023/04/10 12:36:52;;;;;;;14.82;8.80;;;;;;;;;;5013922;28;20049;-89
2023/04/10 12:39:23;;;;;;;10.63;6.57;;;;;;;;;;5014354;28;20037;-89
2023/04/10 12:41:49;;;;;;;14.52;6.57;;;;;;;;;;5038178;28;20026;-91
2023/04/10 12:44:17;;;;;;;11.85;6.30;;;;;;;;;;5015115;28;20463;-89
2023/04/10 12:46:44;;;;;;;10.88;6.63;;;;;;;;;;5017261;28;20290;-90
2023/04/10 12:49:10;;;;;;;13.73;6.18;;;;;;;;;;5019200;28;20033;-90
2023/04/10 12:51:50;;;;;;;19.25;9.23;;;;;;;;;;5015338;28;20636;-90
2023/04/10 12:54:36;;;;;;;14.63;6.45;;;;;;;;;;5013836;28;20117;-89
2023/04/10 12:57:03;;;;;;;11.50;6.43;;;;;;;;;;5006149;28;20161;-88
2023/04/10 12:59:30;;;;;;;9.98;6.47;;;;;;;;;;5026356;28;20112;-90
2023/04/10 13:01:56;;;;;;;9.77;6.72;;;;;;;;;;5018164;28;20040;-90
2023/04/10 13:04:22;;;;;;;11.40;6.07;;;;;;;;;;5022695;28;20118;-90
2023/04/10 13:06:51;;;;;;;26.45;6.82;;;;;;;;;;5015896;28;20041;-90
2023/04/10 13:09:18;;;;;;;8.35;5.55;;;;;;;;;;5002268;28;20034;-93
2023/04/10 13:11:47;;;;;;;10.60;6.18;;;;;;;;;;4996249;28;20507;-89
2023/04/10 13:14:16;;;;;;;11.65;6.63;;;;;;;;;;5000686;28;20060;-91
2023/04/10 13:16:42;;;;;;;16.20;11.38;;;;;;;;;;5007969;28;20033;-92
2023/04/10 13:19:09;;;;;;;8.70;5.38;;;;;;;;;;5004433;28;20025;-91
2023/04/10 13:21:35;;;;;;;18.60;7.05;;;;;;;;;;4994740;28;20032;-93
2023/04/10 13:24:04;;;;;;;13.70;8.45;;;;;;;;;;5003481;28;20018;-93
2023/04/10 13:26:30;;;;;;;11.88;7.47;;;;;;;;;;5000820;28;20048;-91
2023/04/10 13:28:57;;;;;;;19.95;13.05;;;;;;;;;;4997512;28;20495;-89
2023/04/10 13:31:24;;;;;;;19.25;10.52;;;;;;;;;;5000792;28;20124;-93
2023/04/10 13:33:50;;;;;;;9.43;5.05;;;;;;;;;;4996426;28;20056;-89
2023/04/10 13:36:16;;;;;;;11.05;4.32;;;;;;;;;;5018338;28;20080;-90
2023/04/10 13:38:43;;;;;;;10.45;4.47;;;;;;;;;;4999078;28;20522;-94
2023/04/10 13:41:09;;;;;;;6.00;3.75;;;;;;;;;;4998204;28;20052;-90
2023/04/10 13:43:36;;;;;;;8.95;3.60;;;;;;;;;;4999263;28;20091;-91
2023/04/10 13:46:02;;;;;;;11.10;8.48;;;;;;;;;;5014944;28;20037;-91
2023/04/10 13:48:29;;;;;;;24.50;16.48;;;;;;;;;;5008302;28;20148;-90
2023/04/10 13:50:56;;;;;;;13.38;8.65;;;;;;;;;;4997354;28;20887;-91
2023/04/10 13:53:22;;;;;;;16.83;11.07;;;;;;;;;;4994448;28;20117;-88
2023/04/10 13:55:49;;;;;;;27.67;16.83;;;;;;;;;;4996049;28;20057;-90
2023/04/10 13:58:18;;;;;;;43.55;26.52;;;;;;;;;;5010193;28;20026;-90
2023/04/10 14:00:44;;;;;;;23.50;15.35;;;;;;;;;;4995274;28;20511;-89
2023/04/10 14:03:11;;;;;;;74.75;43.63;;;;;;;;;;5003318;28;20068;-89
2023/04/10 14:05:40;;;;;;;49.85;28.58;;;;;;;;;;5015452;28;20046;-93
2023/04/10 14:08:10;;;;;;;;;;;;;;;;;;5019444;28;20081;-94
2023/04/10 14:10:38;;;;;;;17.10;9.98;;;;;;;;;;5015479;28;20091;-94
2023/04/10 14:13:05;;;;;;;16.30;9.93;;;;;;;;;;5011533;28;20032;-89
2023/04/10 14:15:32;;;;;;;25.23;16.63;;;;;;;;;;5007063;28;20041;-91
2023/04/10 14:17:58;;;;;;;21.40;7.60;;;;;;;;;;5030961;28;20029;-92
2023/04/10 14:20:24;;;;;;;6.65;2.90;;;;;;;;;;5006557;28;20021;-89
2023/04/10 14:22:54;;;;;;;10.32;3.30;;;;;;;;;;5011571;28;20033;-90
2023/04/10 14:25:20;;;;;;;11.15;6.88;;;;;;;;;;5021529;28;20464;-91
2023/04/10 14:27:47;;;;;;;3.50;1.85;;;;;;;;;;5016479;28;20089;-90
2023/04/10 14:30:13;;;;;;;6.28;3.00;;;;;;;;;;4996005;28;20033;-92
2023/04/10 14:32:39;;;;;;;6.68;2.72;;;;;;;;;;5018031;28;20578;-90
2023/04/10 14:35:07;;;;;;;11.40;5.28;;;;;;;;;;5003075;28;20034;-93
2023/04/10 14:37:43;;;;;;;6.45;2.67;;;;;;;;;;5014890;28;20085;-94
2023/04/10 14:40:17;;;;;;;16.88;8.40;;;;;;;;;;5025897;28;20084;-93
2023/04/10 14:42:46;;;;;;;19.65;11.45;;;;;;;;;;5012157;28;20029;-94
2023/04/10 14:45:13;;;;;;;9.55;3.10;;;;;;;;;;5011767;28;20095;-91
2023/04/10 14:47:40;;;;;;;10.60;5.35;;;;;;;;;;5016109;28;20034;-92
2023/04/10 14:50:07;;;;;;;6.07;2.28;;;;;;;;;;5010215;28;20033;-89
2023/04/10 14:52:33;;;;;;;12.13;4.35;;;;;;;;;;5019379;28;20028;-91
2023/04/10 14:54:59;;;;;;;10.77;5.97;;;;;;;;;;5013640;28;20116;-88